Time;durP1;ratioP1;P1;durP2;ratioP2;P2;SDS_P1;SDS_P2;PMS_P1;PMS_P2;Temp;Humidity;BMP_temperature;BMP_pressure;BME280_temperature;BME280_humidity;BME280_pressure;Samples;Min_cycle;Max_cycle;Signal;HPM_P1;HPM_P2
2022/06/20 00:00:14;;;;;;;12.20;5.57;;;;;;;18.68;87.25;100439.84;5032650;28;20408;-85
2022/06/20 00:02:47;;;;;;;20.15;5.50;;;;;;;18.89;88.31;100507.91;5015426;28;20033;-85
2022/06/20 00:05:20;;;;;;;19.05;6.10;;;;;;;18.26;89.56;100442.31;5033317;28;20029;-85
2022/06/20 00:07:46;;;;;;;11.63;5.50;;;;;;;18.64;89.80;100519.16;5001178;28;20405;-82
2022/06/20 00:10:13;;;;;;;15.65;6.18;;;;;;;18.28;88.85;100443.19;4992333;28;20034;-84
2022/06/20 00:12:39;;;;;;;19.83;6.30;;;;;;;18.59;89.65;100504.31;4975555;28;20022;-83
2022/06/20 00:15:05;;;;;;;8.40;5.90;;;;;;;17.70;90.80;100397.53;4992993;28;20058;-86
2022/06/20 00:17:31;;;;;;;13.32;6.07;;;;;;;18.37;91.09;100492.03;5009000;28;20511;-86
2022/06/20 00:19:56;;;;;;;15.90;6.28;;;;;;;17.73;91.44;100367.97;5032818;28;20171;-88
2022/06/20 00:22:22;;;;;;;10.25;5.63;;;;;;;18.46;91.45;100489.44;5033114;28;20404;-88
2022/06/20 00:24:47;;;;;;;10.13;6.60;;;;;;;17.85;91.93;100411.56;5012439;28;20041;-86
2022/06/20 00:27:13;;;;;;;9.32;6.75;;;;;;;18.24;92.90;100472.75;5032399;28;20079;-85
2022/06/20 00:29:41;;;;;;;7.10;6.25;;;;;;;18.30;93.24;100485.88;5015283;28;20396;-82
2022/06/20 00:32:09;;;;;;;10.45;6.68;;;;;;;17.54;93.28;100365.22;5032197;28;20034;-80
2022/06/20 00:34:35;;;;;;;8.32;6.15;;;;;;;17.89;93.19;100415.94;5014616;28;20045;-80
2022/06/20 00:37:01;;;;;;;9.70;6.88;;;;;;;17.92;92.92;100405.53;5032205;28;20652;-80
2022/06/20 00:39:27;;;;;;;9.45;6.07;;;;;;;18.18;93.42;100471.00;5009150;28;20066;-81
2022/06/20 00:41:53;;;;;;;9.43;6.53;;;;;;;18.02;94.56;100469.16;4991911;28;20035;-80
2022/06/20 00:44:31;;;;;;;9.85;6.47;;;;;;;17.98;94.83;100467.38;4992084;28;20026;-80
2022/06/20 00:47:02;;;;;;;7.32;6.25;;;;;;;17.88;96.19;100467.31;5007465;28;20117;-80
2022/06/20 00:49:33;;;;;;;11.35;7.25;;;;;;;17.81;96.98;100475.06;4992345;28;20050;-81
2022/06/20 00:52:03;;;;;;;7.70;6.35;;;;;;;17.68;98.03;100467.13;4992512;28;20046;-79
2022/06/20 00:54:46;;;;;;;10.50;6.55;;;;;;;17.65;97.80;100467.13;4991738;28;20026;-82
2022/06/20 00:57:18;;;;;;;7.72;5.90;;;;;;;17.42;97.28;100452.16;4992535;28;20129;-79
2022/06/20 00:59:52;;;;;;;8.18;6.57;;;;;;;17.48;96.73;100468.72;5006392;28;20109;-82
2022/06/20 01:02:30;;;;;;;10.63;6.60;;;;;;;17.57;95.54;100454.03;4991722;28;20113;-80
2022/06/20 01:05:00;;;;;;;7.28;6.28;;;;;;;17.52;94.55;100437.44;4992096;28;20042;-80
2022/06/20 01:07:37;;;;;;;8.65;6.07;;;;;;;17.13;95.17;100384.06;4992247;28;20023;-82
2022/06/20 01:10:04;;;;;;;9.45;6.72;;;;;;;17.40;96.34;100455.63;4996275;28;20030;-84
2022/06/20 01:12:37;;;;;;;8.05;5.97;;;;;;;17.42;97.57;100457.38;5011609;28;20041;-89
2022/06/20 01:15:16;;;;;;;7.65;6.25;;;;;;;17.29;98.05;100435.50;5001683;28;20162;-83
2022/06/20 01:17:42;;;;;;;9.15;6.25;;;;;;;17.45;97.98;100446.94;5011181;28;20560;-83
2022/06/20 01:20:19;;;;;;;7.10;6.07;;;;;;;17.50;97.43;100449.59;5001523;28;20117;-79
2022/06/20 01:23:22;;;;;;;6.95;6.25;;;;;;;17.57;96.95;100454.03;5027153;28;20816;-80
2022/06/20 01:26:21;;;;;;;13.88;6.00;;;;;;;17.43;95.48;100396.50;5031062;28;20026;-82
2022/06/20 01:28:51;;;;;;;9.25;5.97;;;;;;;17.67;94.39;100443.63;5013886;28;20029;-78
2022/06/20 01:31:20;;;;;;;6.47;5.00;;;;;;;17.53;91.83;100454.84;5013811;28;20498;-85
2022/06/20 01:33:48;;;;;;;7.88;5.18;;;;;;;17.44;91.73;100426.94;5021504;28;20056;-84
2022/06/20 01:39:00;;;;;;;7.75;5.05;;;;;;;17.90;89.33;100447.28;5020202;28;20140;-85
2022/06/20 01:44:17;;;;;;;7.65;5.15;;;;;;;17.78;87.49;100385.41;5030625;28;20044;-82
2022/06/20 01:46:43;;;;;;;12.45;5.38;;;;;;;18.15;87.26;100438.75;5013290;28;20068;-82
2022/06/20 01:49:23;;;;;;;7.53;5.15;;;;;;;18.12;86.72;100423.94;5031286;28;20089;-82
2022/06/20 01:51:55;;;;;;;8.43;4.95;;;;;;;17.94;85.91;100396.84;5031133;28;20036;-81
2022/06/20 01:54:23;;;;;;;8.60;5.00;;;;;;;18.08;87.38;100437.84;5031292;28;20041;-79
2022/06/20 01:56:50;;;;;;;10.73;5.45;;;;;;;17.57;88.18;100377.44;5030763;28;20564;-82
2022/06/20 01:59:34;;;;;;;12.45;5.63;;;;;;;17.74;89.45;100406.25;5030816;28;20459;-81
2022/06/20 02:02:00;;;;;;;11.07;5.53;;;;;;;17.78;90.09;100416.75;5030990;28;20029;-79
2022/06/20 02:04:30;;;;;;;13.27;5.50;;;;;;;17.45;87.43;100362.56;5031032;28;20036;-81
2022/06/20 02:06:55;;;;;;;8.55;5.72;;;;;;;17.17;87.25;100354.56;5013037;28;20439;-82
2022/06/20 02:09:21;;;;;;;6.57;4.70;;;;;;;17.26;88.11;100396.34;5030614;28;20033;-83
2022/06/20 02:11:48;;;;;;;8.68;5.50;;;;;;;17.53;87.96;100438.31;5030753;28;20021;-84
2022/06/20 02:14:35;;;;;;;8.52;4.93;;;;;;;17.31;87.35;100388.56;5030801;28;20040;-81
2022/06/20 02:17:10;;;;;;;8.38;4.88;;;;;;;17.46;86.32;100417.38;5030674;28;20029;-82
2022/06/20 02:19:42;;;;;;;10.70;5.85;;;;;;;17.00;86.59;100353.50;5030891;28;20037;-81
2022/06/20 02:22:09;;;;;;;11.02;4.85;;;;;;;17.49;87.44;100426.97;5030355;28;20075;-80
2022/06/20 02:24:39;;;;;;;13.57;4.97;;;;;;;17.58;87.22;100424.44;5012797;28;20026;-81
2022/06/20 02:27:13;;;;;;;12.18;5.00;;;;;;;17.57;86.78;100416.59;5012543;28;20037;-84
2022/06/20 02:29:38;;;;;;;9.95;5.40;;;;;;;17.16;86.70;100344.97;5030611;28;20456;-81
2022/06/20 02:32:22;;;;;;;11.40;5.22;;;;;;;17.27;86.08;100352.84;5012782;28;20032;-80
2022/06/20 02:34:48;;;;;;;13.48;5.20;;;;;;;17.05;85.34;100313.56;5030627;28;20017;-79
2022/06/20 02:37:20;;;;;;;15.35;5.60;;;;;;;17.48;84.68;100370.41;4994758;28;20592;-80
2022/06/20 02:39:49;;;;;;;12.00;5.25;;;;;;;17.57;83.45;100385.25;5012295;28;20032;-81
2022/06/20 02:42:22;;;;;;;16.73;5.03;;;;;;;17.77;82.86;100424.59;5030318;28;20060;-80
2022/06/20 02:44:48;;;;;;;12.63;5.13;;;;;;;17.72;82.56;100427.16;5012097;28;20396;-79
2022/06/20 02:47:16;;;;;;;15.43;5.18;;;;;;;17.16;82.84;100331.03;5030151;28;20033;-80
2022/06/20 02:49:43;;;;;;;9.60;5.45;;;;;;;17.60;83.49;100401.81;5029872;28;20049;-80
2022/06/20 02:52:15;;;;;;;10.40;5.38;;;;;;;17.06;83.52;100320.53;5030347;28;20034;-80
2022/06/20 02:54:41;;;;;;;11.70;5.65;;;;;;;17.42;84.14;100365.16;5012702;28;20030;-82
2022/06/20 02:57:31;;;;;;;13.98;5.60;;;;;;;17.68;84.50;100421.88;5012464;28;20248;-80
2022/06/20 02:59:59;;;;;;;10.77;5.72;;;;;;;17.57;84.88;100417.47;5029985;28;20029;-82
2022/06/20 03:02:29;;;;;;;12.00;5.28;;;;;;;17.63;84.25;100416.63;5012178;28;20030;-83
2022/06/20 03:04:55;;;;;;;11.48;5.00;;;;;;;17.54;83.76;100417.44;5003166;28;20041;-80
2022/06/20 03:07:27;;;;;;;10.02;5.35;;;;;;;17.50;83.59;100402.63;4989911;28;20105;-80
2022/06/20 03:10:01;;;;;;;11.10;5.40;;;;;;;17.52;84.72;100431.34;4989444;28;20508;-79
2022/06/20 03:12:27;;;;;;;12.15;6.10;;;;;;;17.34;86.91;100434.69;4972550;28;20065;-80
2022/06/20 03:14:56;;;;;;;7.55;5.90;;;;;;;16.24;93.84;100416.09;4990066;28;20065;-83
2022/06/20 03:17:23;;;;;;;9.60;6.57;;;;;;;15.88;97.41;100421.69;4972731;28;20165;-79
2022/06/20 03:19:54;;;;;;;8.95;5.18;;;;;;;16.07;95.75;100425.44;4989683;28;20023;-79
2022/06/20 03:22:32;;;;;;;10.27;5.88;;;;;;;15.74;97.81;100437.94;4989415;28;20026;-83
2022/06/20 03:24:59;;;;;;;8.88;5.80;;;;;;;15.72;97.08;100397.13;4989915;28;20088;-81
2022/06/20 03:27:32;;;;;;;12.07;5.80;;;;;;;15.80;96.25;100379.88;4989913;28;20030;-82
2022/06/20 03:30:19;;;;;;;8.80;5.90;;;;;;;15.78;96.28;100364.25;4989817;28;20562;-78
2022/06/20 03:32:45;;;;;;;6.80;6.10;;;;;;;15.96;97.01;100415.75;5010978;28;20055;-84
2022/06/20 03:35:10;;;;;;;7.03;6.10;;;;;;;16.08;97.15;100425.44;5007331;28;20034;-81
2022/06/20 03:37:37;;;;;;;9.90;6.63;;;;;;;15.75;97.16;100365.94;5007748;28;20042;-80
2022/06/20 03:40:04;;;;;;;8.85;6.07;;;;;;;16.20;96.42;100409.13;4980548;28;20065;-81
2022/06/20 03:42:30;;;;;;;8.48;6.50;;;;;;;16.58;95.33;100447.78;5007657;28;20026;-81
2022/06/20 03:44:58;;;;;;;15.07;6.78;;;;;;;16.42;95.62;100409.38;5007545;28;20046;-81
2022/06/20 03:47:29;;;;;;;11.02;6.53;;;;;;;16.56;95.23;100431.28;5007037;28;20496;-82
2022/06/20 03:50:03;;;;;;;8.55;6.43;;;;;;;16.63;95.11;100430.47;5006932;28;20065;-79
2022/06/20 03:52:41;;;;;;;7.90;6.32;;;;;;;15.99;95.24;100303.81;5007661;28;20033;-81
2022/06/20 03:55:15;;;;;;;7.88;6.45;;;;;;;16.70;94.05;100413.19;4990887;28;20510;-84
2022/06/20 03:57:48;;;;;;;9.48;6.57;;;;;;;16.32;94.88;100358.88;5007312;28;20115;-82
2022/06/20 04:00:17;;;;;;;11.65;6.68;;;;;;;16.76;95.10;100420.16;5006249;28;20069;-80
2022/06/20 04:02:49;;;;;;;8.43;6.30;;;;;;;16.82;94.44;100420.22;4995281;28;20037;-83
2022/06/20 04:05:40;;;;;;;13.95;6.50;;;;;;;16.88;94.25;100411.63;5009912;28;20041;-83
2022/06/20 04:08:12;;;;;;;9.20;6.28;;;;;;;16.85;93.92;100365.53;5033005;28;20033;-84
2022/06/20 04:10:59;;;;;;;16.48;7.30;;;;;;;17.30;94.26;100410.31;5032779;28;20523;-80
2022/06/20 04:13:40;;;;;;;10.70;7.07;;;;;;;17.37;95.12;100411.22;5033221;28;20032;-79
2022/06/20 04:16:18;;;;;;;9.35;7.03;;;;;;;17.12;95.65;100371.88;5028358;28;20120;-86
2022/06/20 04:18:53;;;;;;;14.10;7.53;;;;;;;17.46;94.59;100416.53;5032745;28;20022;-83
2022/06/20 04:21:44;;;;;;;10.57;7.45;;;;;;;17.21;94.36;100390.22;5006159;28;20033;-81
2022/06/20 04:24:12;;;;;;;10.60;7.35;;;;;;;17.45;94.39;100417.38;5032733;28;20033;-81
2022/06/20 04:27:01;;;;;;;12.77;8.13;;;;;;;17.61;92.98;100411.41;5014978;28;20030;-79
2022/06/20 04:29:33;;;;;;;8.43;6.82;;;;;;;17.55;93.95;100385.25;4971218;28;20145;-79
2022/06/20 04:32:06;;;;;;;11.65;7.47;;;;;;;17.73;92.51;100410.63;4971521;28;20043;-83
2022/06/20 04:35:05;;;;;;;9.15;7.28;;;;;;;17.79;92.75;100409.78;4971336;28;20038;-83
2022/06/20 04:37:38;;;;;;;13.35;8.00;;;;;;;17.62;92.75;100386.19;4921441;29;20044;-83
2022/06/20 04:40:27;;;;;;;10.30;7.65;;;;;;;17.84;93.87;100417.66;4919741;29;20044;-81
2022/06/20 04:43:30;;;;;;;12.73;8.43;;;;;;;17.85;94.02;100412.44;4932691;29;20043;-84
2022/06/20 04:45:55;;;;;;;14.20;8.80;;;;;;;17.86;95.04;100406.34;4932882;29;20602;-81
2022/06/20 04:48:22;;;;;;;12.68;8.18;;;;;;;17.79;95.53;100404.56;4932162;29;20039;-82
2022/06/20 04:50:54;;;;;;;10.88;8.55;;;;;;;17.51;96.43;100354.78;4932794;29;20042;-83
2022/06/20 04:53:25;;;;;;;10.85;9.48;;;;;;;17.90;96.31;100407.25;4916626;29;20035;-82
2022/06/20 04:55:54;;;;;;;12.80;11.38;;;;;;;17.91;96.50;100404.63;4932520;29;20044;-83
2022/06/20 04:58:30;;;;;;;13.40;11.57;;;;;;;18.08;96.22;100416.94;4932349;29;20054;-84
2022/06/20 05:00:57;;;;;;;15.00;10.75;;;;;;;18.09;95.45;100413.47;4922944;29;20540;-82
2022/06/20 05:03:29;;;;;;;16.58;12.10;;;;;;;18.19;95.98;100406.53;4928722;29;20039;-87
2022/06/20 05:05:58;;;;;;;14.80;12.70;;;;;;;18.07;95.10;100366.44;4936104;28;20106;-86
2022/06/20 05:08:33;;;;;;;16.27;12.55;;;;;;;18.18;95.57;100374.34;4952995;28;20039;-85
2022/06/20 05:11:08;;;;;;;17.80;14.05;;;;;;;18.27;96.89;100386.56;4970374;28;20058;-86
2022/06/20 05:13:47;;;;;;;16.65;11.95;;;;;;;18.35;96.27;100397.03;4961549;28;20468;-86
2022/06/20 05:16:43;;;;;;;14.57;12.02;;;;;;;18.43;95.62;100382.25;5030988;28;20143;-84
2022/06/20 05:19:38;;;;;;;14.88;12.93;;;;;;;18.58;94.73;100390.13;4950631;28;20035;-82
2022/06/20 05:22:11;;;;;;;14.68;13.00;;;;;;;18.58;95.95;100387.53;4874518;29;20059;-84
2022/06/20 05:24:39;;;;;;;14.55;11.32;;;;;;;18.07;95.75;100295.91;4874897;29;20040;-85
2022/06/20 05:27:45;;;;;;;11.00;9.63;;;;;;;18.80;94.05;100391.94;4857515;29;20135;-84
2022/06/20 05:30:16;;;;;;;15.18;10.27;;;;;;;18.86;92.98;100371.88;4870078;29;20053;-87
2022/06/20 05:32:51;;;;;;;14.52;10.10;;;;;;;18.87;92.08;100363.16;4837736;29;20077;-84
2022/06/20 05:35:48;;;;;;;12.98;10.00;;;;;;;19.07;93.29;100372.81;4838181;29;20475;-83
2022/06/20 05:38:28;;;;;;;10.57;9.45;;;;;;;19.04;92.60;100359.72;4765736;30;20182;-83
2022/06/20 05:40:55;;;;;;;;;;;;;;;19.28;91.37;100387.66;4766495;30;20534;-84
2022/06/20 05:43:21;;;;;;;10.40;9.15;;;;;;;19.07;90.53;100331.81;4762502;30;19969;-86
2022/06/20 05:45:58;;;;;;;20.88;8.73;;;;;;;19.33;89.62;100359.72;4763084;30;20140;-81
2022/06/20 05:48:30;;;;;;;10.95;8.13;;;;;;;19.47;90.12;100369.31;4749572;30;20047;-85
2022/06/20 05:51:02;;;;;;;9.95;8.02;;;;;;;19.61;89.19;100387.63;4764876;30;20055;-86
2022/06/20 05:53:33;;;;;;;8.70;7.70;;;;;;;19.72;89.50;100394.56;4764780;30;20112;-83
2022/06/20 05:56:03;;;;;;;10.20;8.20;;;;;;;19.38;88.28;100291.66;4779166;29;20046;-84
2022/06/20 05:58:34;;;;;;;11.93;8.70;;;;;;;19.69;88.42;100333.47;4833750;29;20527;-86
2022/06/20 06:01:03;;;;;;;8.82;7.53;;;;;;;19.64;87.52;100294.22;4874089;29;20528;-83
2022/06/20 06:03:38;;;;;;;9.75;7.95;;;;;;;20.09;86.88;100364.81;4873720;29;20124;-85
2022/06/20 06:06:10;;;;;;;10.25;7.47;;;;;;;19.96;87.04;100319.47;4873130;29;20041;-86
2022/06/20 06:08:56;;;;;;;10.25;7.63;;;;;;;19.71;86.28;100259.28;4873874;29;20041;-85
2022/06/20 06:11:38;;;;;;;9.57;7.47;;;;;;;20.38;85.63;100361.19;4910745;29;20039;-90
2022/06/20 06:14:28;;;;;;;9.43;7.10;;;;;;;20.64;83.73;100371.53;4931972;28;20036;-91
2022/06/20 06:17:00;;;;;;;9.80;6.18;;;;;;;20.60;83.08;100345.31;4992632;28;20057;-89
2022/06/20 06:19:32;;;;;;;12.93;8.60;;;;;;;20.73;85.65;100373.25;5011960;28;20029;-89
2022/06/20 06:22:13;;;;;;;10.85;8.70;;;;;;;20.50;91.06;100329.66;5013188;28;20039;-87
2022/06/20 06:24:42;;;;;;;9.85;5.90;;;;;;;20.55;81.13;100333.97;5017770;28;20076;-88
2022/06/20 06:27:17;;;;;;;7.60;5.15;;;;;;;20.48;76.02;100328.78;5021731;28;20025;-87
2022/06/20 06:29:55;;;;;;;8.52;5.72;;;;;;;20.18;80.08;100265.16;5029856;28;20603;-89
2022/06/20 06:32:49;;;;;;;10.10;5.70;;;;;;;20.77;81.13;100337.38;5007492;28;20412;-76
2022/06/20 06:35:22;;;;;;;6.82;5.20;;;;;;;20.77;80.69;100330.38;4969212;28;20047;-80
2022/06/20 06:38:01;;;;;;;8.40;5.32;;;;;;;20.98;76.51;100352.06;4968999;28;20053;-82
2022/06/20 06:40:41;;;;;;;6.70;4.53;;;;;;;20.92;76.12;100333.75;4968781;28;20478;-81
2022/06/20 06:43:28;;;;;;;6.07;4.85;;;;;;;21.13;74.98;100336.22;4968686;28;20031;-82
2022/06/20 06:45:58;;;;;;;7.85;4.88;;;;;;;21.03;76.30;100303.03;4968906;28;20054;-81
2022/06/20 06:48:36;;;;;;;7.00;4.57;;;;;;;21.07;74.44;100296.00;4968411;28;20026;-83
2022/06/20 06:51:05;;;;;;;5.82;4.95;;;;;;;21.39;73.59;100313.22;4968982;28;20065;-80
2022/06/20 06:53:31;;;;;;;7.80;5.07;;;;;;;21.56;73.61;100334.97;4952481;28;20050;-80
2022/06/20 06:56:02;;;;;;;6.30;4.75;;;;;;;21.60;72.65;100327.91;4952722;28;20441;-82
2022/06/20 06:58:38;;;;;;;9.52;5.20;;;;;;;21.30;73.03;100272.16;4968607;28;20172;-82
2022/06/20 07:01:18;;;;;;;7.30;4.63;;;;;;;21.45;71.47;100276.38;4968536;28;20027;-82
2022/06/20 07:04:00;;;;;;;6.05;4.93;;;;;;;21.74;73.89;100306.72;4968589;28;20027;-82
2022/06/20 07:06:32;;;;;;;5.75;4.65;;;;;;;21.91;72.51;100324.94;4969006;28;20425;-85
2022/06/20 07:09:15;;;;;;;6.47;4.80;;;;;;;21.81;74.35;100301.38;4949470;29;20027;-84
2022/06/20 07:11:47;;;;;;;5.90;4.78;;;;;;;21.80;72.34;100272.50;4959201;28;20050;-83
2022/06/20 07:14:22;;;;;;;35.13;33.17;;;;;;;21.78;71.63;100275.16;5029668;28;20064;-83
2022/06/20 07:17:01;;;;;;;12.18;7.53;;;;;;;22.13;72.05;100315.00;5012067;28;20029;-83
2022/06/20 07:19:27;;;;;;;47.53;45.03;;;;;;;21.86;70.03;100251.41;5029626;28;20026;-82
2022/06/20 07:21:54;;;;;;;32.13;30.20;;;;;;;22.11;70.87;100278.22;5029162;28;20041;-83
2022/06/20 07:24:24;;;;;;;10.35;9.35;;;;;;;22.32;73.08;100312.13;5029879;28;20030;-82
2022/06/20 07:27:08;;;;;;;6.80;6.13;;;;;;;22.21;73.09;100289.47;5029941;28;20025;-82
2022/06/20 07:29:43;;;;;;;7.55;4.88;;;;;;;22.20;74.60;100265.84;5005772;28;20025;-81
2022/06/20 07:32:16;;;;;;;68.75;65.35;;;;;;;22.46;69.18;100308.44;5029327;28;20188;-81
2022/06/20 07:34:47;;;;;;;8.50;6.40;;;;;;;22.19;74.48;100251.81;5029411;28;20026;-82
2022/06/20 07:37:35;;;;;;;80.80;76.72;;;;;;;22.65;69.35;100310.78;5005741;28;20026;-80
2022/06/20 07:40:24;;;;;;;86.23;82.00;;;;;;;22.66;68.88;100296.75;5015278;28;20025;-81
2022/06/20 07:42:55;;;;;;;80.30;76.32;;;;;;;22.84;68.76;100299.97;5004188;28;20026;-82
2022/06/20 07:45:39;;;;;;;76.65;72.55;;;;;;;22.71;68.00;100250.16;5025964;28;20539;-81
2022/06/20 07:48:30;;;;;;;71.70;67.97;;;;;;;23.01;71.48;100266.31;5029225;28;20029;-79
2022/06/20 07:51:02;;;;;;;88.35;83.95;;;;;;;23.03;67.41;100268.91;5032831;28;20132;-81
2022/06/20 07:53:37;;;;;;;98.60;93.63;;;;;;;23.16;67.56;100288.06;5015278;28;20021;-81
2022/06/20 07:56:12;;;;;;;124.50;117.78;;;;;;;23.20;66.92;100273.91;5033240;28;20038;-81
2022/06/20 07:58:43;;;;;;;125.75;119.57;;;;;;;22.71;66.08;100194.03;5014967;28;20029;-83
2022/06/20 08:01:22;;;;;;;139.95;132.77;;;;;;;23.42;65.66;100285.78;5032945;28;20416;-81
2022/06/20 08:03:53;;;;;;;143.17;135.83;;;;;;;23.15;66.87;100233.59;5032682;28;20472;-83
2022/06/20 08:06:45;;;;;;;114.15;108.35;;;;;;;23.44;67.70;100267.34;5015861;28;20029;-83
2022/06/20 08:09:31;;;;;;;81.28;76.93;;;;;;;23.58;70.56;100274.97;4971433;28;20070;-84
2022/06/20 08:12:00;;;;;;;63.28;59.90;;;;;;;23.73;70.83;100277.28;4955057;28;20093;-81
2022/06/20 08:14:33;;;;;;;116.43;110.40;;;;;;;23.85;66.98;100270.00;4955227;28;20721;-84
2022/06/20 08:17:02;;;;;;;49.47;46.70;;;;;;;24.06;63.73;100269.59;4971597;28;20506;-84
2022/06/20 08:19:29;;;;;;;7.85;4.03;;;;;;;24.13;63.51;100262.41;4971294;28;20513;-84
2022/06/20 08:22:02;;;;;;;125.82;118.78;;;;;;;24.22;66.79;100259.56;4939217;28;20145;-83
2022/06/20 08:24:53;;;;;;;111.03;105.13;;;;;;;24.30;67.46;100258.50;4970880;28;20097;-83
2022/06/20 08:27:54;;;;;;;75.50;71.20;;;;;;;24.41;65.74;100267.03;4965986;28;20035;-86
2022/06/20 08:31:00;;;;;;;5.80;3.40;;;;;;;24.50;59.25;100248.34;4894857;29;20116;-85
2022/06/20 08:33:41;;;;;;;8.13;3.80;;;;;;;24.33;57.78;100184.56;4884366;29;20176;-86
2022/06/20 08:36:32;;;;;;;5.63;3.50;;;;;;;24.69;59.58;100214.47;4860728;29;20037;-86
2022/06/20 08:39:01;;;;;;;5.28;3.60;;;;;;;24.97;62.28;100256.00;4879673;29;20052;-85
2022/06/20 08:41:49;;;;;;;5.00;3.70;;;;;;;25.14;59.32;100244.13;4892640;29;20051;-87
2022/06/20 08:44:33;;;;;;;5.75;3.50;;;;;;;25.20;57.99;100241.31;4878980;29;20176;-84
2022/06/20 08:47:20;;;;;;;4.68;3.28;;;;;;;25.22;55.22;100235.97;4909277;29;20044;-84
2022/06/20 08:49:53;;;;;;;6.55;3.65;;;;;;;25.26;59.13;100250.84;4913519;29;20193;-83
2022/06/20 08:52:24;;;;;;;5.72;3.50;;;;;;;25.42;56.90;100243.38;4913237;29;20065;-85
2022/06/20 08:54:53;;;;;;;5.80;3.00;;;;;;;25.26;54.56;100190.94;4913566;29;20036;-83
2022/06/20 08:57:29;;;;;;;7.22;3.20;;;;;;;25.49;56.24;100216.72;4913539;29;20047;-84
2022/06/20 09:00:03;;;;;;;5.35;3.00;;;;;;;25.66;53.05;100223.31;4891870;29;20176;-85
2022/06/20 09:02:44;;;;;;;6.05;2.75;;;;;;;25.79;50.36;100218.50;4903254;29;20491;-84
2022/06/20 09:05:34;;;;;;;6.65;2.78;;;;;;;25.92;51.44;100219.88;4913188;29;20103;-87
2022/06/20 09:08:40;;;;;;;8.38;3.20;;;;;;;26.05;53.88;100227.44;5013492;28;20049;-84
2022/06/20 09:11:18;;;;;;;10.05;3.45;;;;;;;26.20;53.95;100224.31;4951181;29;20035;-81
2022/06/20 09:13:56;;;;;;;8.52;3.30;;;;;;;26.36;53.58;100218.56;4950859;29;20124;-81
2022/06/20 09:16:31;;;;;;;12.32;4.60;;;;;;;26.24;50.58;100193.34;4926240;29;20529;-81
2022/06/20 09:19:00;;;;;;;8.35;3.58;;;;;;;26.42;50.85;100210.41;4929996;29;20529;-78
2022/06/20 09:21:41;;;;;;;10.07;3.80;;;;;;;26.12;51.08;100218.41;4931219;29;20044;-81
2022/06/20 09:24:20;;;;;;;12.07;3.38;;;;;;;26.06;50.15;100173.66;4931210;29;20058;-81
2022/06/20 09:27:06;;;;;;;6.55;3.15;;;;;;;26.41;48.42;100211.31;4930124;29;20532;-78
2022/06/20 09:29:44;;;;;;;7.75;2.90;;;;;;;26.54;50.89;100217.91;4929986;29;20091;-80
2022/06/20 09:32:34;;;;;;;6.80;3.17;;;;;;;26.42;48.71;100208.63;4929828;29;20036;-78
2022/06/20 09:34:59;;;;;;;10.07;3.70;;;;;;;26.54;47.96;100212.63;4930029;29;20024;-77
2022/06/20 09:37:52;;;;;;;17.98;3.97;;;;;;;26.73;53.38;100209.34;4929196;29;20479;-79
2022/06/20 09:40:41;;;;;;;6.43;3.05;;;;;;;26.65;47.08;100172.56;4930418;29;20503;-79
2022/06/20 09:43:19;;;;;;;11.02;3.88;;;;;;;27.04;47.57;100205.66;4929116;29;20442;-82
2022/06/20 09:46:04;;;;;;;10.23;3.63;;;;;;;26.96;49.80;100153.81;4948636;28;20057;-79
2022/06/20 09:48:50;;;;;;;8.35;3.10;;;;;;;27.37;48.47;100187.66;4981957;28;20107;-78
2022/06/20 09:51:30;;;;;;;6.50;2.92;;;;;;;27.56;47.46;100197.59;5030779;28;20467;-78
2022/06/20 09:54:19;;;;;;;15.25;3.58;;;;;;;27.70;48.64;100189.13;5030335;28;20051;-78
2022/06/20 09:57:21;;;;;;;14.98;3.15;;;;;;;27.79;47.36;100188.78;5030774;28;20036;-77
2022/06/20 10:00:05;;;;;;;7.85;2.90;;;;;;;27.64;43.83;100194.66;4950413;28;20054;-80
2022/06/20 10:02:54;;;;;;;7.43;2.60;;;;;;;27.64;47.60;100192.00;4950223;29;20098;-80
2022/06/20 10:05:37;;;;;;;5.13;2.15;;;;;;;27.65;42.87;100160.13;4949788;29;20138;-80
2022/06/20 10:08:24;;;;;;;4.68;2.20;;;;;;;27.98;46.28;100196.00;4950421;29;20526;-79
2022/06/20 10:10:49;;;;;;;5.30;2.47;;;;;;;28.16;45.46;100182.00;4949901;29;20078;-80
2022/06/20 10:13:27;;;;;;;7.68;2.70;;;;;;;28.02;46.33;100150.69;4943498;29;20188;-77
2022/06/20 10:16:19;;;;;;;4.88;2.55;;;;;;;28.20;45.14;100185.41;4943414;29;20040;-81
2022/06/20 10:19:13;;;;;;;3.95;2.60;;;;;;;28.34;43.65;100184.84;4930773;29;20188;-80
2022/06/20 10:21:45;;;;;;;6.00;2.38;;;;;;;28.48;39.25;100160.38;4931778;29;20095;-80
2022/06/20 10:24:40;;;;;;;4.38;2.10;;;;;;;28.77;41.12;100177.72;4935826;29;20044;-79
2022/06/20 10:27:24;;;;;;;8.57;3.38;;;;;;;28.89;41.88;100171.00;4928176;29;20032;-78
2022/06/20 10:29:52;;;;;;;8.77;2.92;;;;;;;29.11;41.59;100172.69;4930406;29;20043;-82
2022/06/20 10:32:24;;;;;;;4.35;2.60;;;;;;;29.25;40.70;100180.03;4914340;29;20082;-85
2022/06/20 10:35:08;;;;;;;5.53;2.50;;;;;;;29.35;41.01;100166.28;4930534;29;20058;-78
2022/06/20 10:37:44;;;;;;;6.32;2.80;;;;;;;29.18;36.92;100158.19;4996520;28;20044;-80
2022/06/20 10:40:43;;;;;;;6.43;2.40;;;;;;;29.34;37.69;100155.75;5010397;28;20025;-82
2022/06/20 10:43:10;;;;;;;;;;;;;;;29.42;37.66;100158.03;5010532;28;20026;-80
2022/06/20 10:45:46;;;;;;;15.82;3.40;;;;;;;29.61;39.36;100150.91;5010105;28;19920;-80
2022/06/20 10:48:22;;;;;;;12.68;4.05;;;;;;;29.73;43.98;100144.13;5010157;28;20025;-79
2022/06/20 10:51:02;;;;;;;10.88;3.00;;;;;;;29.79;39.91;100140.31;5010352;28;20046;-80
2022/06/20 10:53:52;;;;;;;22.38;3.78;;;;;;;29.44;39.95;100146.38;5002585;28;20030;-81
2022/06/20 10:56:31;;;;;;;9.43;3.17;;;;;;;28.95;38.66;100132.66;5003932;28;20157;-82
2022/06/20 10:59:19;;;;;;;13.65;4.05;;;;;;;28.40;39.62;100134.16;5027675;28;20029;-82
2022/06/20 11:01:57;;;;;;;5.00;2.40;;;;;;;28.32;38.99;100136.25;5001769;28;20038;-82
2022/06/20 11:04:57;;;;;;;12.93;3.40;;;;;;;28.36;41.41;100145.81;4990451;28;20032;-87
2022/06/20 11:07:22;;;;;;;;;;;;;;;28.56;39.23;100131.66;5001870;28;20060;-86
2022/06/20 11:10:29;;;;;;;7.07;2.50;;;;;;;28.41;39.94;100128.75;4991950;28;19913;-83
2022/06/20 11:13:21;;;;;;;7.00;2.25;;;;;;;28.44;39.46;100126.88;4991795;28;20417;-82
2022/06/20 11:16:03;;;;;;;4.00;2.28;;;;;;;28.71;39.54;100130.16;4992335;28;20026;-82
2022/06/20 11:19:04;;;;;;;4.78;2.55;;;;;;;28.93;39.87;100123.91;4994371;28;20023;-83
2022/06/20 11:21:56;;;;;;;6.80;2.65;;;;;;;29.25;38.88;100118.91;4955127;28;20027;-81
2022/06/20 11:24:28;;;;;;;4.35;2.67;;;;;;;29.45;43.25;100113.53;4953530;28;20043;-81
2022/06/20 11:27:02;;;;;;;8.63;2.75;;;;;;;29.59;39.63;100106.72;4954753;28;20042;-84
2022/06/20 11:29:59;;;;;;;7.75;2.72;;;;;;;29.78;36.88;100104.00;4952847;28;20178;-82
2022/06/20 11:32:40;;;;;;;8.57;2.60;;;;;;;29.62;40.64;100109.22;4953238;28;20514;-84
2022/06/20 11:35:30;;;;;;;12.18;3.28;;;;;;;29.63;40.41;100102.94;4955498;28;20090;-78
2022/06/20 11:38:02;;;;;;;8.88;3.22;;;;;;;29.59;38.89;100093.41;4972367;28;20043;-86
2022/06/20 11:40:49;;;;;;;4.90;2.20;;;;;;;29.51;39.46;100083.16;4956231;28;20521;-81
2022/06/20 11:43:33;;;;;;;9.32;2.25;;;;;;;29.44;38.70;100097.66;4972618;28;20117;-83
2022/06/20 11:46:17;;;;;;;3.13;1.98;;;;;;;29.12;39.68;100095.53;4960189;28;20031;-82
2022/06/20 11:49:16;;;;;;;4.10;2.00;;;;;;;28.99;38.46;100075.81;4951966;28;20058;-86
2022/06/20 11:52:04;;;;;;;6.10;2.57;;;;;;;28.86;39.72;100055.09;4880557;29;20052;-87
2022/06/20 11:54:53;;;;;;;4.13;2.10;;;;;;;29.28;40.13;100100.16;4916343;29;20267;-87
2022/06/20 11:57:35;;;;;;;4.15;2.10;;;;;;;29.27;40.68;100085.97;4914433;29;20047;-88
2022/06/20 12:00:05;;;;;;;3.88;2.10;;;;;;;29.21;40.08;100087.16;4900916;29;20028;-89
2022/06/20 12:02:41;;;;;;;5.05;2.15;;;;;;;29.16;38.60;100075.00;4898386;29;20119;-88
2022/06/20 12:05:06;;;;;;;3.78;2.00;;;;;;;29.36;39.57;100080.28;4915580;29;20692;-86
2022/06/20 12:07:40;;;;;;;5.90;2.47;;;;;;;29.18;39.42;100033.25;4918247;29;20032;-80
2022/06/20 12:10:17;;;;;;;4.45;2.20;;;;;;;29.75;39.44;100069.59;4952442;29;20039;-83